Time;durP1;ratioP1;P1;durP2;ratioP2;P2;SDS_P1;SDS_P2;PMS_P1;PMS_P2;Temp;Humidity;BMP_temperature;BMP_pressure;BME280_temperature;BME280_humidity;BME280_pressure;Samples;Min_cycle;Max_cycle;Signal;HPM_P1;HPM_P2
2020/12/23 00:00:43;;;;;;;11.20;9.00;;;;;;;8.52;89.75;99133.55;517202;1095;65313;-63
2020/12/23 00:10:47;;;;;;;8.80;7.25;;;;;;;8.53;89.71;99156.16;516570;1097;65236;-62
2020/12/23 00:20:51;;;;;;;4.80;3.70;;;;;;;8.12;88.29;99158.58;517192;1097;65166;-64
2020/12/23 00:30:55;;;;;;;3.73;2.97;;;;;;;7.80;87.53;99182.30;516268;1093;65280;-62
2020/12/23 00:41:03;;;;;;;3.87;2.70;;;;;;;7.51;87.84;99200.50;516903;1095;65222;-63
2020/12/23 00:51:11;;;;;;;4.50;3.57;;;;;;;7.24;87.33;99210.75;516690;1095;65150;-63
2020/12/23 01:01:15;;;;;;;4.10;3.40;;;;;;;7.18;87.38;99209.32;517463;1095;65240;-63
2020/12/23 01:11:24;;;;;;;4.00;3.33;;;;;;;7.15;87.46;99243.45;518600;1095;65150;-61
2020/12/23 01:21:28;;;;;;;4.13;2.60;;;;;;;7.12;87.73;99251.45;516922;1090;65189;-63
2020/12/23 01:31:32;;;;;;;6.50;3.55;;;;;;;7.12;87.61;99241.84;517874;1096;65318;-61
2020/12/23 01:41:42;;;;;;;5.17;3.70;;;;;;;7.17;87.77;99204.20;517222;1097;65435;-63
2020/12/23 01:51:47;;;;;;;6.15;3.70;;;;;;;7.09;87.96;99210.69;516873;1095;65162;-63
2020/12/23 02:02:02;;;;;;;3.13;2.70;;;;;;;6.97;87.62;99206.15;517045;1095;65233;-64
2020/12/23 02:12:06;;;;;;;4.57;3.47;;;;;;;6.95;87.82;99218.45;517210;1095;65602;-63
2020/12/23 02:22:10;;;;;;;4.50;3.10;;;;;;;6.82;87.92;99220.88;517903;1096;65566;-62
2020/12/23 02:32:15;;;;;;;5.10;2.40;;;;;;;6.80;87.53;99256.66;517429;1097;65220;-63
2020/12/23 02:42:23;;;;;;;2.60;1.57;;;;;;;6.81;87.38;99248.76;517547;1090;65236;-63
2020/12/23 02:52:27;;;;;;;1.57;1.45;;;;;;;6.73;86.98;99267.41;517530;1090;65165;-63
2020/12/23 03:02:31;;;;;;;2.03;1.77;;;;;;;6.62;86.80;99259.31;517398;1095;65293;-63
2020/12/23 03:12:37;;;;;;;2.80;1.63;;;;;;;6.54;86.55;99262.33;517398;1095;65232;-63
2020/12/23 03:22:41;;;;;;;2.87;1.63;;;;;;;6.57;86.69;99272.59;517118;1090;65235;-63
2020/12/23 03:32:45;;;;;;;2.20;1.70;;;;;;;6.60;86.61;99255.95;517645;1095;65403;-63
2020/12/23 03:42:55;;;;;;;3.40;1.87;;;;;;;6.59;86.54;99255.13;516928;1097;65308;-63
2020/12/23 03:52:59;;;;;;;3.10;2.70;;;;;;;6.57;86.72;99266.55;516378;1095;65414;-63
2020/12/23 04:03:07;;;;;;;3.97;2.23;;;;;;;6.57;86.70;99284.81;517541;1090;65232;-62
2020/12/23 04:13:15;;;;;;;3.93;3.47;;;;;;;6.57;86.67;99282.20;517517;1095;65170;-63
2020/12/23 04:23:19;;;;;;;3.93;3.00;;;;;;;6.50;86.74;99291.27;517456;1096;65198;-63
2020/12/23 04:33:23;;;;;;;3.17;2.30;;;;;;;6.48;86.99;99298.33;517698;1097;65192;-62
2020/12/23 04:43:35;;;;;;;2.77;1.97;;;;;;;6.44;86.91;99329.80;517594;1095;65246;-63
2020/12/23 04:53:39;;;;;;;3.57;3.27;;;;;;;6.42;86.71;99318.61;518168;1095;65141;-62
2020/12/23 05:03:45;;;;;;;5.97;4.70;;;;;;;6.40;86.54;99325.64;517497;1090;65326;-63
2020/12/23 05:13:52;;;;;;;6.10;4.75;;;;;;;6.14;86.16;99340.02;517143;1095;65153;-62
2020/12/23 05:23:58;;;;;;;4.50;3.30;;;;;;;5.89;85.99;99331.59;517233;1090;65552;-63
2020/12/23 05:34:03;;;;;;;6.57;4.53;;;;;;;5.78;86.03;99340.88;517512;1097;65175;-63
2020/12/23 05:44:18;;;;;;;9.13;5.40;;;;;;;5.70;85.77;99357.70;518053;1095;65178;-63
2020/12/23 05:54:22;;;;;;;6.13;5.27;;;;;;;5.57;85.79;99364.41;517946;1095;65162;-63
2020/12/23 06:04:31;;;;;;;7.57;5.67;;;;;;;5.40;85.77;99349.58;517420;1095;65175;-61
2020/12/23 06:14:47;;;;;;;11.50;8.60;;;;;;;5.27;86.02;99359.70;517519;1095;65229;-63
2020/12/23 06:24:51;;;;;;;8.67;6.47;;;;;;;5.25;85.98;99353.73;516593;1097;65178;-62
2020/12/23 06:34:58;;;;;;;8.07;5.37;;;;;;;5.16;85.75;99363.64;517191;1097;65264;-63
2020/12/23 06:45:04;;;;;;;7.53;5.03;;;;;;;5.16;85.48;99388.84;517390;1095;65713;-62
2020/12/23 06:55:08;;;;;;;6.73;4.93;;;;;;;5.20;85.72;99400.80;517609;1095;65220;-63
2020/12/23 07:05:14;;;;;;;5.60;4.85;;;;;;;5.17;85.55;99395.73;517813;1095;65537;-62
2020/12/23 07:15:23;;;;;;;6.27;3.70;;;;;;;4.93;84.96;99405.46;517102;1097;65229;-61
2020/12/23 07:25:28;;;;;;;5.40;2.93;;;;;;;4.67;84.22;99416.06;517317;1095;65162;-62
2020/12/23 07:35:32;;;;;;;9.53;3.77;;;;;;;4.59;84.59;99421.59;517121;1090;65157;-62
2020/12/23 07:45:36;;;;;;;5.70;3.40;;;;;;;4.66;84.09;99437.78;517454;1095;65176;-61
2020/12/23 07:55:42;;;;;;;5.23;3.70;;;;;;;4.68;83.77;99435.99;517397;1095;65230;-62
2020/12/23 08:05:45;;;;;;;8.40;3.63;;;;;;;4.85;83.94;99437.87;517074;1095;65383;-63
2020/12/23 08:16:07;;;;;;;13.37;5.30;;;;;;;4.98;83.96;99435.58;516758;1095;65185;-61
2020/12/23 08:26:13;;;;;;;7.25;3.95;;;;;;;5.15;83.41;99428.80;517301;1095;65162;-62
2020/12/23 08:36:24;;;;;;;4.90;3.53;;;;;;;5.36;83.50;99424.38;508518;1090;10002009;-67
2020/12/23 08:46:29;;;;;;;7.57;4.10;;;;;;;5.77;82.97;99435.56;517219;1097;65595;-59
2020/12/23 08:56:33;;;;;;;9.23;4.80;;;;;;;6.00;82.47;99442.31;517031;1090;65156;-59
2020/12/23 09:06:38;;;;;;;7.83;4.80;;;;;;;6.15;81.91;99446.81;517399;1095;65250;-60
2020/12/23 09:17:00;;;;;;;8.77;4.20;;;;;;;6.59;81.36;99447.32;516041;1090;65256;-63
2020/12/23 09:27:20;;;;;;;8.23;3.30;;;;;;;6.62;80.51;99444.55;517038;1095;65239;-64
2020/12/23 09:37:30;;;;;;;8.27;2.90;;;;;;;6.66;79.81;99445.25;517039;1095;65145;-58
2020/12/23 09:47:35;;;;;;;10.47;2.90;;;;;;;6.70;79.25;99434.58;517248;1095;65584;-65
2020/12/23 09:57:39;;;;;;;7.60;3.67;;;;;;;6.59;78.90;99440.36;517294;1095;65643;-63
2020/12/23 10:07:44;;;;;;;7.77;3.00;;;;;;;6.46;78.58;99431.42;517234;1095;65387;-72
2020/12/23 10:17:48;;;;;;;2.80;1.20;;;;;;;6.50;77.50;99434.73;517154;1095;65592;-72
2020/12/23 10:27:52;;;;;;;7.83;3.13;;;;;;;6.66;77.32;99417.41;517072;1095;65195;-71
2020/12/23 10:37:56;;;;;;;8.70;2.63;;;;;;;6.93;77.17;99421.30;517113;1095;65144;-71
2020/12/23 10:48:00;;;;;;;8.03;3.53;;;;;;;7.02;76.29;99399.91;517005;1095;65531;-65
2020/12/23 10:58:04;;;;;;;7.77;3.50;;;;;;;7.21;76.38;99396.34;518358;1095;65275;-67
2020/12/23 11:08:09;;;;;;;5.13;2.27;;;;;;;7.27;76.36;99401.22;517464;1095;65380;-70
2020/12/23 11:18:13;;;;;;;7.05;3.25;;;;;;;7.01;75.67;99393.00;517659;1095;65272;-67
2020/12/23 11:28:49;;;;;;;8.83;3.07;;;;;;;6.67;76.21;99381.70;493132;1147;65204;-67
2020/12/23 11:38:53;;;;;;;7.37;3.07;;;;;;;6.58;76.73;99383.88;491869;1147;65188;-65
2020/12/23 11:48:58;;;;;;;7.83;3.90;;;;;;;6.56;76.97;99403.96;491328;1148;65119;-65
2020/12/23 11:59:02;;;;;;;7.47;4.27;;;;;;;6.38;76.67;99408.34;491676;1148;65339;-68
2020/12/23 12:09:06;;;;;;;10.57;4.60;;;;;;;6.23;77.20;99401.28;491871;1148;65206;-76
2020/12/23 12:19:10;;;;;;;14.60;5.27;;;;;;;6.56;77.55;99390.09;490551;1147;65140;-74
2020/12/23 12:29:14;;;;;;;6.60;3.73;;;;;;;6.79;77.28;99386.28;490969;1147;65121;-72
2020/12/23 12:39:18;;;;;;;4.37;2.93;;;;;;;6.94;77.43;99371.59;491429;1148;65191;-72
2020/12/23 12:49:22;;;;;;;9.67;4.90;;;;;;;6.94;77.03;99387.27;491602;1148;65188;-74
2020/12/23 12:59:28;;;;;;;14.70;6.27;;;;;;;6.64;76.86;99389.70;491313;1148;65137;-73
2020/12/23 13:09:33;;;;;;;7.63;3.40;;;;;;;6.47;77.20;99395.77;493172;1145;65417;-74
2020/12/23 13:19:37;;;;;;;10.33;3.20;;;;;;;6.52;77.37;99398.97;493506;1146;65136;-73
2020/12/23 13:29:41;;;;;;;5.55;2.90;;;;;;;6.30;77.22;99394.86;493913;1144;65207;-73
2020/12/23 13:39:45;;;;;;;6.00;2.10;;;;;;;6.15;77.21;99389.45;493751;1144;65230;-75
2020/12/23 13:49:49;;;;;;;9.50;4.00;;;;;;;6.12;77.82;99379.19;493992;1144;65188;-73
2020/12/23 13:59:53;;;;;;;8.00;4.57;;;;;;;6.17;77.84;99378.96;493999;1144;65144;-72
2020/12/23 14:09:57;;;;;;;5.15;2.90;;;;;;;6.10;77.88;99381.03;494246;1144;65130;-74
2020/12/23 14:20:01;;;;;;;6.97;4.17;;;;;;;6.04;77.74;99381.31;493931;1144;65114;-74
2020/12/23 14:30:06;;;;;;;5.37;3.10;;;;;;;5.87;77.95;99392.52;494416;1144;65159;-72
2020/12/23 14:40:10;;;;;;;6.10;2.77;;;;;;;5.83;78.14;99377.96;493807;1144;65554;-73
2020/12/23 14:50:14;;;;;;;20.00;8.73;;;;;;;5.81;78.45;99392.83;493384;1144;65194;-75
2020/12/23 15:00:18;;;;;;;18.23;7.33;;;;;;;5.81;78.21;99375.42;494196;1144;65501;-73
2020/12/23 15:10:22;;;;;;;5.77;4.50;;;;;;;5.79;78.57;99371.22;494546;1144;65142;-73
2020/12/23 15:20:26;;;;;;;11.80;7.07;;;;;;;5.77;78.61;99370.42;493480;1144;65201;-62
2020/12/23 15:30:30;;;;;;;10.07;6.30;;;;;;;5.78;78.46;99348.69;493514;1142;65272;-65
2020/12/23 15:40:34;;;;;;;14.10;9.25;;;;;;;5.74;78.50;99346.20;485050;1144;10001798;-64
2020/12/23 15:50:39;;;;;;;10.63;7.37;;;;;;;5.69;78.57;99323.90;493586;1144;65207;-65
2020/12/23 16:00:43;;;;;;;19.90;10.60;;;;;;;5.66;78.84;99317.09;493584;1144;65499;-65
2020/12/23 16:10:47;;;;;;;26.03;16.83;;;;;;;5.73;78.67;99320.25;493475;1144;65459;-65
2020/12/23 16:20:56;;;;;;;21.43;14.20;;;;;;;5.77;78.71;99306.14;493726;1143;65244;-66
2020/12/23 16:31:00;;;;;;;24.27;17.70;;;;;;;5.68;79.28;99293.56;493545;1144;65137;-64
2020/12/23 16:41:07;;;;;;;25.03;17.07;;;;;;;5.46;79.64;99290.23;493922;1144;65214;-63
2020/12/23 16:51:17;;;;;;;23.37;14.87;;;;;;;5.35;79.87;99284.70;493112;1144;65111;-60
2020/12/23 17:01:21;;;;;;;19.17;11.77;;;;;;;5.22;79.39;99273.18;493078;1144;65137;-65
2020/12/23 17:11:25;;;;;;;21.43;14.10;;;;;;;5.11;80.06;99271.06;494219;1144;65220;-67
2020/12/23 17:21:32;;;;;;;18.30;12.23;;;;;;;5.00;80.02;99258.56;493707;1144;65175;-66
2020/12/23 17:31:37;;;;;;;22.10;15.00;;;;;;;4.97;80.74;99243.92;493551;1143;65218;-66
2020/12/23 17:41:43;;;;;;;28.20;17.95;;;;;;;4.95;80.88;99245.77;493908;1144;65220;-59
2020/12/23 17:51:50;;;;;;;25.87;15.70;;;;;;;4.94;80.89;99238.87;493397;1144;65137;-63
2020/12/23 18:01:54;;;;;;;25.13;16.03;;;;;;;4.89;80.72;99228.67;485374;1144;10001157;-71
2020/12/23 18:11:58;;;;;;;20.15;15.20;;;;;;;4.82;80.67;99205.63;493393;1144;66510;-66
2020/12/23 18:22:08;;;;;;;27.30;16.80;;;;;;;4.80;81.17;99202.26;493470;1144;65146;-64
2020/12/23 18:32:15;;;;;;;26.07;18.50;;;;;;;4.79;81.39;99179.73;494241;1144;65112;-63
2020/12/23 18:42:19;;;;;;;31.50;20.77;;;;;;;4.76;81.49;99173.77;493612;1144;65135;-62
2020/12/23 18:52:28;;;;;;;31.40;20.63;;;;;;;4.79;81.29;99161.52;493110;1144;65499;-61
2020/12/23 19:02:32;;;;;;;40.00;23.30;;;;;;;4.80;81.84;99148.45;493273;1144;65580;-60
2020/12/23 19:12:38;;;;;;;31.00;21.40;;;;;;;4.86;81.97;99124.77;494431;1144;65174;-59
2020/12/23 19:22:46;;;;;;;30.57;20.02;;;;;;;4.91;82.66;99095.92;493600;1144;65640;-61
2020/12/23 19:32:51;;;;;;;27.97;20.23;;;;;;;4.98;82.79;99096.47;493132;1144;65127;-59
2020/12/23 19:42:56;;;;;;;33.27;22.20;;;;;;;5.03;82.45;99079.71;493622;1144;65191;-63
2020/12/23 19:53:04;;;;;;;29.23;20.55;;;;;;;5.07;83.14;99069.14;493352;1144;65190;-60
2020/12/23 20:03:08;;;;;;;32.35;20.40;;;;;;;5.07;83.02;99033.53;493820;1144;65190;-60
2020/12/23 20:13:12;;;;;;;30.30;23.20;;;;;;;5.03;83.33;99022.46;492912;1144;65200;-61
2020/12/23 20:23:25;;;;;;;37.10;23.90;;;;;;;5.03;83.67;98982.57;492842;1144;65210;-60
2020/12/23 20:33:29;;;;;;;38.60;24.50;;;;;;;5.00;83.79;98983.56;493601;1144;65233;-63
2020/12/23 20:43:50;;;;;;;44.23;25.87;;;;;;;4.97;84.58;98990.70;493168;1144;65610;-61
2020/12/23 20:53:54;;;;;;;44.50;26.95;;;;;;;4.94;84.38;98952.67;493323;1144;65318;-74
2020/12/23 21:03:58;;;;;;;42.47;26.33;;;;;;;4.96;85.08;98932.61;494254;1144;65121;-66
2020/12/23 21:14:04;;;;;;;37.30;24.67;;;;;;;4.98;84.80;98945.55;493777;1144;65197;-62
2020/12/23 21:24:08;;;;;;;45.43;26.60;;;;;;;5.01;85.08;98947.98;493547;1144;65108;-61
2020/12/23 21:34:13;;;;;;;50.40;27.70;;;;;;;5.05;85.79;98921.73;493910;1144;66281;-68
2020/12/23 21:44:17;;;;;;;53.10;29.63;;;;;;;5.11;86.10;98904.95;495425;1144;65175;-64
2020/12/23 21:54:24;;;;;;;55.63;32.10;;;;;;;5.14;86.24;98865.75;493348;1144;65101;-63
2020/12/23 22:04:28;;;;;;;54.55;28.75;;;;;;;5.18;86.06;98864.66;493509;1144;65212;-63
2020/12/23 22:14:32;;;;;;;59.17;33.37;;;;;;;5.22;86.41;98831.50;493792;1144;65203;-63
2020/12/23 22:24:38;;;;;;;60.00;31.57;;;;;;;5.29;87.00;98819.84;493685;1144;65201;-60
2020/12/23 22:34:42;;;;;;;55.60;32.05;;;;;;;5.39;87.26;98794.13;493422;1144;65242;-61
2020/12/23 22:44:46;;;;;;;44.60;27.20;;;;;;;5.61;87.87;98778.16;493498;1144;65249;-61
2020/12/23 22:54:56;;;;;;;37.85;22.75;;;;;;;5.80;87.97;98745.00;493321;1144;65358;-61
2020/12/23 23:04:59;;;;;;;46.93;24.43;;;;;;;5.91;88.05;98720.91;493155;1143;65534;-61
2020/12/23 23:15:05;;;;;;;32.17;19.77;;;;;;;5.99;87.86;98688.25;494070;1142;65194;-63
2020/12/23 23:25:17;;;;;;;37.00;20.57;;;;;;;6.07;88.01;98668.75;493867;1144;65150;-61
2020/12/23 23:35:23;;;;;;;46.37;24.37;;;;;;;6.12;88.26;98640.66;493457;1144;65213;-61
2020/12/23 23:45:27;;;;;;;34.60;20.35;;;;;;;6.12;88.36;98630.23;493123;1144;65194;-65
2020/12/23 23:55:36;;;;;;;31.07;17.90;;;;;;;6.16;88.14;98601.25;493484;1143;65127;-65
